Volokolamsk, Russia
Current Conditions -  °F | °C
As of 7:00 AM on Monday 26 Jan 2015 (Local Time) from UUEE Reporting Station
Light Snow Light Snow  
Wind Chill:   Ceiling: 3000
Heat Index: 12°   Visibility: 4mi
Dew Point:   Wind: 9mph
Humidity: 85%   Direction: 160°SSE
Pressure: 30.27"   Gusts: NA
Location:  56.03°N, 35.97°E
Report Text: UUEE 260400Z 16004MPS 7000 -SN OVC030 M11/M13 Q1025 57490227NOSIG
Loading
Personal Weather Stations






























Interactive Weather Map New forecast layout! Learn more

10-Day Weather Forecast

Advertisements
Track Severe Weather on mobile